sensor_id;sensor_type;location;lat;lon;timestamp;P1;durP1;ratioP1;P2;durP2;ratioP2
20699;SDS011;10511;51.232;9.420;2023-12-14T00:00:45;0.90;;;0.90;;
20699;SDS011;10511;51.232;9.420;2023-12-14T00:03:12;0.90;;;0.90;;
20699;SDS011;10511;51.232;9.420;2023-12-14T00:05:40;0.90;;;0.90;;
20699;SDS011;10511;51.232;9.420;2023-12-14T00:08:07;1.00;;;1.00;;
20699;SDS011;10511;51.232;9.420;2023-12-14T00:10:34;0.90;;;0.90;;
20699;SDS011;10511;51.232;9.420;2023-12-14T00:13:01;1.00;;;1.00;;
20699;SDS011;10511;51.232;9.420;2023-12-14T00:15:29;0.90;;;0.90;;
20699;SDS011;10511;51.232;9.420;2023-12-14T00:17:56;0.90;;;0.90;;
20699;SDS011;10511;51.232;9.420;2023-12-14T00:20:23;0.90;;;0.90;;
20699;SDS011;10511;51.232;9.420;2023-12-14T00:22:51;0.90;;;0.90;;
20699;SDS011;10511;51.232;9.420;2023-12-14T00:25:18;0.90;;;0.90;;
20699;SDS011;10511;51.232;9.420;2023-12-14T00:27:44;0.90;;;0.90;;
20699;SDS011;10511;51.232;9.420;2023-12-14T00:30:11;0.90;;;0.90;;
20699;SDS011;10511;51.232;9.420;2023-12-14T00:32:39;1.00;;;1.00;;
20699;SDS011;10511;51.232;9.420;2023-12-14T00:35:06;0.90;;;0.90;;
20699;SDS011;10511;51.232;9.420;2023-12-14T00:37:33;0.97;;;0.97;;
20699;SDS011;10511;51.232;9.420;2023-12-14T00:40:01;1.10;;;1.10;;
20699;SDS011;10511;51.232;9.420;2023-12-14T00:42:28;1.00;;;1.00;;
20699;SDS011;10511;51.232;9.420;2023-12-14T00:44:55;1.00;;;1.00;;
20699;SDS011;10511;51.232;9.420;2023-12-14T00:47:22;1.00;;;1.00;;
20699;SDS011;10511;51.232;9.420;2023-12-14T00:49:49;0.90;;;0.90;;
20699;SDS011;10511;51.232;9.420;2023-12-14T00:52:16;0.90;;;0.90;;
20699;SDS011;10511;51.232;9.420;2023-12-14T00:54:43;0.90;;;0.90;;
20699;SDS011;10511;51.232;9.420;2023-12-14T00:57:11;0.90;;;0.90;;
20699;SDS011;10511;51.232;9.420;2023-12-14T00:59:38;0.90;;;0.90;;
20699;SDS011;10511;51.232;9.420;2023-12-14T01:02:05;0.90;;;0.90;;
20699;SDS011;10511;51.232;9.420;2023-12-14T01:04:32;0.90;;;0.90;;
20699;SDS011;10511;51.232;9.420;2023-12-14T01:06:59;0.90;;;0.90;;
20699;SDS011;10511;51.232;9.420;2023-12-14T01:09:26;0.90;;;0.90;;
20699;SDS011;10511;51.232;9.420;2023-12-14T01:11:53;0.90;;;0.90;;
20699;SDS011;10511;51.232;9.420;2023-12-14T01:14:21;1.00;;;1.00;;
20699;SDS011;10511;51.232;9.420;2023-12-14T01:16:48;0.90;;;0.90;;
20699;SDS011;10511;51.232;9.420;2023-12-14T01:19:15;0.90;;;0.90;;
20699;SDS011;10511;51.232;9.420;2023-12-14T01:21:42;0.90;;;0.90;;
20699;SDS011;10511;51.232;9.420;2023-12-14T01:24:09;0.97;;;0.97;;
20699;SDS011;10511;51.232;9.420;2023-12-14T01:26:35;1.00;;;1.00;;
20699;SDS011;10511;51.232;9.420;2023-12-14T01:29:02;1.00;;;1.00;;
20699;SDS011;10511;51.232;9.420;2023-12-14T01:31:31;1.00;;;1.00;;
20699;SDS011;10511;51.232;9.420;2023-12-14T01:33:57;0.90;;;0.90;;
20699;SDS011;10511;51.232;9.420;2023-12-14T01:36:25;0.90;;;0.90;;
20699;SDS011;10511;51.232;9.420;2023-12-14T01:38:52;1.00;;;1.00;;
20699;SDS011;10511;51.232;9.420;2023-12-14T01:41:19;0.93;;;0.93;;
20699;SDS011;10511;51.232;9.420;2023-12-14T01:43:46;1.00;;;1.00;;
20699;SDS011;10511;51.232;9.420;2023-12-14T01:46:12;0.90;;;0.90;;
20699;SDS011;10511;51.232;9.420;2023-12-14T01:48:42;0.90;;;0.90;;
20699;SDS011;10511;51.232;9.420;2023-12-14T01:51:09;0.97;;;0.97;;
20699;SDS011;10511;51.232;9.420;2023-12-14T01:53:36;1.00;;;1.00;;
20699;SDS011;10511;51.232;9.420;2023-12-14T01:56:03;1.00;;;1.00;;
20699;SDS011;10511;51.232;9.420;2023-12-14T01:58:30;1.10;;;1.10;;
20699;SDS011;10511;51.232;9.420;2023-12-14T02:00:58;1.00;;;1.00;;
20699;SDS011;10511;51.232;9.420;2023-12-14T02:03:31;0.97;;;0.97;;
20699;SDS011;10511;51.232;9.420;2023-12-14T02:05:59;0.90;;;0.90;;
20699;SDS011;10511;51.232;9.420;2023-12-14T02:08:27;1.00;;;1.00;;
20699;SDS011;10511;51.232;9.420;2023-12-14T02:10:54;0.90;;;0.90;;
20699;SDS011;10511;51.232;9.420;2023-12-14T02:13:21;0.90;;;0.90;;
20699;SDS011;10511;51.232;9.420;2023-12-14T02:15:48;0.90;;;0.90;;
20699;SDS011;10511;51.232;9.420;2023-12-14T02:18:15;1.00;;;1.00;;
20699;SDS011;10511;51.232;9.420;2023-12-14T02:20:42;0.97;;;0.97;;
20699;SDS011;10511;51.232;9.420;2023-12-14T02:23:10;0.90;;;0.90;;
20699;SDS011;10511;51.232;9.420;2023-12-14T02:25:37;1.00;;;1.00;;
20699;SDS011;10511;51.232;9.420;2023-12-14T02:28:04;1.00;;;1.00;;
20699;SDS011;10511;51.232;9.420;2023-12-14T02:30:30;1.00;;;1.00;;
20699;SDS011;10511;51.232;9.420;2023-12-14T02:32:57;1.00;;;1.00;;
20699;SDS011;10511;51.232;9.420;2023-12-14T02:35:24;1.00;;;1.00;;
20699;SDS011;10511;51.232;9.420;2023-12-14T02:37:51;1.00;;;1.00;;
20699;SDS011;10511;51.232;9.420;2023-12-14T02:40:19;1.20;;;1.20;;
20699;SDS011;10511;51.232;9.420;2023-12-14T02:42:46;1.00;;;1.00;;
20699;SDS011;10511;51.232;9.420;2023-12-14T02:45:12;1.00;;;1.00;;
20699;SDS011;10511;51.232;9.420;2023-12-14T02:47:39;1.00;;;1.00;;
20699;SDS011;10511;51.232;9.420;2023-12-14T02:50:06;1.00;;;1.00;;
20699;SDS011;10511;51.232;9.420;2023-12-14T02:52:34;1.00;;;1.00;;
20699;SDS011;10511;51.232;9.420;2023-12-14T02:55:00;1.00;;;1.00;;
20699;SDS011;10511;51.232;9.420;2023-12-14T02:57:29;0.90;;;0.90;;
20699;SDS011;10511;51.232;9.420;2023-12-14T02:59:56;1.00;;;1.00;;
20699;SDS011;10511;51.232;9.420;2023-12-14T03:02:22;0.90;;;0.90;;
20699;SDS011;10511;51.232;9.420;2023-12-14T03:04:49;0.90;;;0.90;;
20699;SDS011;10511;51.232;9.420;2023-12-14T03:07:16;0.90;;;0.90;;
20699;SDS011;10511;51.232;9.420;2023-12-14T03:09:44;0.90;;;0.90;;
20699;SDS011;10511;51.232;9.420;2023-12-14T03:12:11;0.90;;;0.90;;
20699;SDS011;10511;51.232;9.420;2023-12-14T03:14:39;0.90;;;0.90;;
20699;SDS011;10511;51.232;9.420;2023-12-14T03:17:06;0.97;;;0.97;;
20699;SDS011;10511;51.232;9.420;2023-12-14T03:19:37;0.90;;;0.90;;
20699;SDS011;10511;51.232;9.420;2023-12-14T03:22:05;1.00;;;1.00;;
20699;SDS011;10511;51.232;9.420;2023-12-14T03:24:32;0.90;;;0.90;;
20699;SDS011;10511;51.232;9.420;2023-12-14T03:26:59;0.90;;;0.90;;
20699;SDS011;10511;51.232;9.420;2023-12-14T03:29:26;1.00;;;1.00;;
20699;SDS011;10511;51.232;9.420;2023-12-14T03:31:54;1.10;;;1.10;;
20699;SDS011;10511;51.232;9.420;2023-12-14T03:34:21;0.93;;;0.93;;
20699;SDS011;10511;51.232;9.420;2023-12-14T03:36:48;1.00;;;1.00;;
20699;SDS011;10511;51.232;9.420;2023-12-14T03:39:15;1.03;;;1.03;;
20699;SDS011;10511;51.232;9.420;2023-12-14T03:41:42;0.90;;;0.90;;
20699;SDS011;10511;51.232;9.420;2023-12-14T03:44:09;1.07;;;1.07;;
20699;SDS011;10511;51.232;9.420;2023-12-14T03:46:36;1.10;;;1.10;;
20699;SDS011;10511;51.232;9.420;2023-12-14T03:49:04;0.90;;;0.90;;
20699;SDS011;10511;51.232;9.420;2023-12-14T03:51:31;0.90;;;0.90;;
20699;SDS011;10511;51.232;9.420;2023-12-14T03:53:58;1.00;;;1.00;;
20699;SDS011;10511;51.232;9.420;2023-12-14T03:56:25;1.00;;;1.00;;
20699;SDS011;10511;51.232;9.420;2023-12-14T03:58:52;1.00;;;1.00;;
20699;SDS011;10511;51.232;9.420;2023-12-14T04:01:19;1.07;;;1.07;;
20699;SDS011;10511;51.232;9.420;2023-12-14T04:03:46;1.00;;;1.00;;
20699;SDS011;10511;51.232;9.420;2023-12-14T04:06:15;1.00;;;1.00;;
20699;SDS011;10511;51.232;9.420;2023-12-14T04:08:42;1.10;;;1.10;;
20699;SDS011;10511;51.232;9.420;2023-12-14T04:11:09;1.00;;;1.00;;
20699;SDS011;10511;51.232;9.420;2023-12-14T04:13:35;1.00;;;1.00;;
20699;SDS011;10511;51.232;9.420;2023-12-14T04:16:03;1.10;;;1.10;;
20699;SDS011;10511;51.232;9.420;2023-12-14T04:18:31;1.00;;;1.00;;
20699;SDS011;10511;51.232;9.420;2023-12-14T04:20:58;1.00;;;1.00;;
20699;SDS011;10511;51.232;9.420;2023-12-14T04:23:27;1.00;;;1.00;;
20699;SDS011;10511;51.232;9.420;2023-12-14T04:25:53;1.10;;;1.10;;
20699;SDS011;10511;51.232;9.420;2023-12-14T04:28:20;1.10;;;1.10;;
20699;SDS011;10511;51.232;9.420;2023-12-14T04:30:47;1.00;;;1.00;;
20699;SDS011;10511;51.232;9.420;2023-12-14T04:33:14;1.00;;;1.00;;
20699;SDS011;10511;51.232;9.420;2023-12-14T04:35:41;1.10;;;1.10;;
20699;SDS011;10511;51.232;9.420;2023-12-14T04:38:07;1.07;;;1.07;;
20699;SDS011;10511;51.232;9.420;2023-12-14T04:40:36;1.10;;;1.10;;
20699;SDS011;10511;51.232;9.420;2023-12-14T04:43:02;1.10;;;1.10;;
20699;SDS011;10511;51.232;9.420;2023-12-14T04:45:29;1.00;;;1.00;;
20699;SDS011;10511;51.232;9.420;2023-12-14T04:47:56;1.10;;;1.10;;
20699;SDS011;10511;51.232;9.420;2023-12-14T04:50:23;1.10;;;1.10;;
20699;SDS011;10511;51.232;9.420;2023-12-14T04:52:50;1.00;;;1.00;;
20699;SDS011;10511;51.232;9.420;2023-12-14T04:55:16;1.00;;;1.00;;
20699;SDS011;10511;51.232;9.420;2023-12-14T04:57:45;1.17;;;1.17;;
20699;SDS011;10511;51.232;9.420;2023-12-14T05:00:14;1.00;;;1.00;;
20699;SDS011;10511;51.232;9.420;2023-12-14T05:02:45;1.10;;;1.10;;
20699;SDS011;10511;51.232;9.420;2023-12-14T05:05:13;1.00;;;1.00;;
20699;SDS011;10511;51.232;9.420;2023-12-14T05:07:40;1.10;;;1.10;;
20699;SDS011;10511;51.232;9.420;2023-12-14T05:10:07;1.00;;;1.00;;
20699;SDS011;10511;51.232;9.420;2023-12-14T05:12:35;1.07;;;1.07;;
20699;SDS011;10511;51.232;9.420;2023-12-14T05:15:04;0.90;;;0.90;;
20699;SDS011;10511;51.232;9.420;2023-12-14T05:17:32;1.20;;;1.20;;
20699;SDS011;10511;51.232;9.420;2023-12-14T05:19:59;1.00;;;1.00;;
20699;SDS011;10511;51.232;9.420;2023-12-14T05:22:26;1.00;;;1.00;;
20699;SDS011;10511;51.232;9.420;2023-12-14T05:24:53;1.00;;;1.00;;
20699;SDS011;10511;51.232;9.420;2023-12-14T05:27:20;1.10;;;1.10;;
20699;SDS011;10511;51.232;9.420;2023-12-14T05:29:47;1.07;;;1.07;;
20699;SDS011;10511;51.232;9.420;2023-12-14T05:32:15;1.20;;;1.20;;
20699;SDS011;10511;51.232;9.420;2023-12-14T05:34:42;1.03;;;1.03;;
20699;SDS011;10511;51.232;9.420;2023-12-14T05:37:09;1.00;;;1.00;;
20699;SDS011;10511;51.232;9.420;2023-12-14T05:39:35;1.00;;;1.00;;
20699;SDS011;10511;51.232;9.420;2023-12-14T05:42:02;1.10;;;1.10;;
20699;SDS011;10511;51.232;9.420;2023-12-14T05:44:29;1.00;;;1.00;;
20699;SDS011;10511;51.232;9.420;2023-12-14T05:46:56;1.00;;;1.00;;
20699;SDS011;10511;51.232;9.420;2023-12-14T05:49:24;1.10;;;1.10;;
20699;SDS011;10511;51.232;9.420;2023-12-14T05:51:51;1.10;;;1.10;;
20699;SDS011;10511;51.232;9.420;2023-12-14T05:54:19;1.20;;;1.20;;
20699;SDS011;10511;51.232;9.420;2023-12-14T05:56:45;1.00;;;1.00;;
20699;SDS011;10511;51.232;9.420;2023-12-14T05:59:12;1.10;;;1.10;;
20699;SDS011;10511;51.232;9.420;2023-12-14T06:01:39;1.10;;;1.10;;
20699;SDS011;10511;51.232;9.420;2023-12-14T06:04:08;1.17;;;1.17;;
20699;SDS011;10511;51.232;9.420;2023-12-14T06:06:36;1.20;;;1.20;;
20699;SDS011;10511;51.232;9.420;2023-12-14T06:09:04;1.10;;;1.10;;
20699;SDS011;10511;51.232;9.420;2023-12-14T06:11:32;1.10;;;1.10;;
20699;SDS011;10511;51.232;9.420;2023-12-14T06:13:59;1.10;;;1.10;;
20699;SDS011;10511;51.232;9.420;2023-12-14T06:16:25;1.20;;;1.20;;
20699;SDS011;10511;51.232;9.420;2023-12-14T06:18:52;1.23;;;1.23;;
20699;SDS011;10511;51.232;9.420;2023-12-14T06:21:19;1.13;;;1.13;;
20699;SDS011;10511;51.232;9.420;2023-12-14T06:23:47;1.10;;;1.10;;
20699;SDS011;10511;51.232;9.420;2023-12-14T06:26:14;1.23;;;1.23;;
20699;SDS011;10511;51.232;9.420;2023-12-14T06:28:41;1.20;;;1.20;;
20699;SDS011;10511;51.232;9.420;2023-12-14T06:31:11;1.10;;;1.10;;
20699;SDS011;10511;51.232;9.420;2023-12-14T06:33:38;1.20;;;1.20;;
20699;SDS011;10511;51.232;9.420;2023-12-14T06:36:05;1.20;;;1.20;;
20699;SDS011;10511;51.232;9.420;2023-12-14T06:38:34;1.20;;;1.20;;
20699;SDS011;10511;51.232;9.420;2023-12-14T06:41:02;1.20;;;1.20;;
20699;SDS011;10511;51.232;9.420;2023-12-14T06:43:29;1.20;;;1.20;;
20699;SDS011;10511;51.232;9.420;2023-12-14T06:45:56;1.20;;;1.20;;
20699;SDS011;10511;51.232;9.420;2023-12-14T06:48:23;1.20;;;1.20;;
20699;SDS011;10511;51.232;9.420;2023-12-14T06:50:51;1.10;;;1.10;;
20699;SDS011;10511;51.232;9.420;2023-12-14T06:53:19;1.20;;;1.20;;
20699;SDS011;10511;51.232;9.420;2023-12-14T06:55:47;1.10;;;1.10;;
20699;SDS011;10511;51.232;9.420;2023-12-14T06:58:16;1.10;;;1.10;;
20699;SDS011;10511;51.232;9.420;2023-12-14T07:00:44;1.20;;;1.20;;
20699;SDS011;10511;51.232;9.420;2023-12-14T07:03:10;1.20;;;1.20;;
20699;SDS011;10511;51.232;9.420;2023-12-14T07:05:37;1.13;;;1.13;;
20699;SDS011;10511;51.232;9.420;2023-12-14T07:08:05;1.20;;;1.20;;
20699;SDS011;10511;51.232;9.420;2023-12-14T07:10:32;1.30;;;1.30;;
20699;SDS011;10511;51.232;9.420;2023-12-14T07:12:59;1.30;;;1.30;;
20699;SDS011;10511;51.232;9.420;2023-12-14T07:15:27;1.20;;;1.20;;
20699;SDS011;10511;51.232;9.420;2023-12-14T07:17:54;1.20;;;1.20;;
20699;SDS011;10511;51.232;9.420;2023-12-14T07:20:21;1.20;;;1.20;;
20699;SDS011;10511;51.232;9.420;2023-12-14T07:22:48;1.30;;;1.30;;
20699;SDS011;10511;51.232;9.420;2023-12-14T07:25:15;1.20;;;1.20;;
20699;SDS011;10511;51.232;9.420;2023-12-14T07:27:41;1.20;;;1.20;;
20699;SDS011;10511;51.232;9.420;2023-12-14T07:30:09;1.20;;;1.20;;
20699;SDS011;10511;51.232;9.420;2023-12-14T07:32:38;1.20;;;1.20;;
20699;SDS011;10511;51.232;9.420;2023-12-14T07:35:05;1.30;;;1.30;;
20699;SDS011;10511;51.232;9.420;2023-12-14T07:37:33;1.37;;;1.37;;
20699;SDS011;10511;51.232;9.420;2023-12-14T07:40:00;1.20;;;1.20;;
20699;SDS011;10511;51.232;9.420;2023-12-14T07:42:28;1.10;;;1.10;;
20699;SDS011;10511;51.232;9.420;2023-12-14T07:44:55;1.20;;;1.20;;
20699;SDS011;10511;51.232;9.420;2023-12-14T07:47:21;1.20;;;1.20;;
20699;SDS011;10511;51.232;9.420;2023-12-14T07:49:50;1.10;;;1.10;;
20699;SDS011;10511;51.232;9.420;2023-12-14T07:52:16;1.20;;;1.20;;
20699;SDS011;10511;51.232;9.420;2023-12-14T07:54:44;1.30;;;1.30;;
20699;SDS011;10511;51.232;9.420;2023-12-14T07:57:10;1.10;;;1.10;;
20699;SDS011;10511;51.232;9.420;2023-12-14T07:59:37;1.20;;;1.20;;
20699;SDS011;10511;51.232;9.420;2023-12-14T08:02:04;1.17;;;1.17;;
20699;SDS011;10511;51.232;9.420;2023-12-14T08:04:31;1.13;;;1.13;;
20699;SDS011;10511;51.232;9.420;2023-12-14T08:07:00;1.10;;;1.10;;
20699;SDS011;10511;51.232;9.420;2023-12-14T08:09:26;1.20;;;1.20;;
20699;SDS011;10511;51.232;9.420;2023-12-14T08:11:53;1.10;;;1.10;;
20699;SDS011;10511;51.232;9.420;2023-12-14T08:14:20;1.20;;;1.20;;
20699;SDS011;10511;51.232;9.420;2023-12-14T08:16:47;1.17;;;1.17;;
20699;SDS011;10511;51.232;9.420;2023-12-14T08:19:14;1.10;;;1.10;;
20699;SDS011;10511;51.232;9.420;2023-12-14T08:21:41;1.20;;;1.20;;
20699;SDS011;10511;51.232;9.420;2023-12-14T08:24:09;1.10;;;1.10;;
20699;SDS011;10511;51.232;9.420;2023-12-14T08:26:36;1.10;;;1.10;;
20699;SDS011;10511;51.232;9.420;2023-12-14T08:29:03;1.20;;;1.20;;
20699;SDS011;10511;51.232;9.420;2023-12-14T08:31:30;1.10;;;1.10;;
20699;SDS011;10511;51.232;9.420;2023-12-14T08:33:57;1.10;;;1.10;;
20699;SDS011;10511;51.232;9.420;2023-12-14T08:36:24;1.10;;;1.10;;
20699;SDS011;10511;51.232;9.420;2023-12-14T08:38:50;1.10;;;1.10;;
20699;SDS011;10511;51.232;9.420;2023-12-14T08:41:19;1.10;;;1.10;;
20699;SDS011;10511;51.232;9.420;2023-12-14T08:43:45;1.10;;;1.10;;
20699;SDS011;10511;51.232;9.420;2023-12-14T08:46:13;1.20;;;1.20;;
20699;SDS011;10511;51.232;9.420;2023-12-14T08:48:39;1.30;;;1.30;;
20699;SDS011;10511;51.232;9.420;2023-12-14T08:51:06;1.10;;;1.10;;
20699;SDS011;10511;51.232;9.420;2023-12-14T08:53:33;1.20;;;1.20;;
20699;SDS011;10511;51.232;9.420;2023-12-14T08:56:00;1.10;;;1.10;;
20699;SDS011;10511;51.232;9.420;2023-12-14T08:58:29;1.10;;;1.10;;
20699;SDS011;10511;51.232;9.420;2023-12-14T09:00:56;1.10;;;1.10;;
20699;SDS011;10511;51.232;9.420;2023-12-14T09:03:23;1.20;;;1.20;;
20699;SDS011;10511;51.232;9.420;2023-12-14T09:05:51;1.20;;;1.20;;
20699;SDS011;10511;51.232;9.420;2023-12-14T09:08:18;1.10;;;1.10;;
20699;SDS011;10511;51.232;9.420;2023-12-14T09:10:45;1.30;;;1.30;;
20699;SDS011;10511;51.232;9.420;2023-12-14T09:13:11;1.30;;;1.30;;
20699;SDS011;10511;51.232;9.420;2023-12-14T09:15:40;1.27;;;1.27;;
20699;SDS011;10511;51.232;9.420;2023-12-14T09:18:06;1.20;;;1.20;;
20699;SDS011;10511;51.232;9.420;2023-12-14T09:20:33;1.20;;;1.20;;
20699;SDS011;10511;51.232;9.420;2023-12-14T09:23:02;1.27;;;1.27;;
20699;SDS011;10511;51.232;9.420;2023-12-14T09:25:29;1.20;;;1.20;;
20699;SDS011;10511;51.232;9.420;2023-12-14T09:27:56;1.20;;;1.20;;
20699;SDS011;10511;51.232;9.420;2023-12-14T09:30:23;1.10;;;1.10;;
20699;SDS011;10511;51.232;9.420;2023-12-14T09:32:51;1.30;;;1.30;;
20699;SDS011;10511;51.232;9.420;2023-12-14T09:35:18;1.20;;;1.20;;
20699;SDS011;10511;51.232;9.420;2023-12-14T09:37:45;1.20;;;1.20;;
20699;SDS011;10511;51.232;9.420;2023-12-14T09:40:12;1.20;;;1.20;;
20699;SDS011;10511;51.232;9.420;2023-12-14T09:42:39;1.20;;;1.20;;
20699;SDS011;10511;51.232;9.420;2023-12-14T09:45:06;1.20;;;1.20;;
20699;SDS011;10511;51.232;9.420;2023-12-14T09:47:34;1.30;;;1.30;;
20699;SDS011;10511;51.232;9.420;2023-12-14T09:50:03;1.20;;;1.20;;
20699;SDS011;10511;51.232;9.420;2023-12-14T09:52:31;1.30;;;1.30;;
20699;SDS011;10511;51.232;9.420;2023-12-14T09:54:58;1.20;;;1.20;;
20699;SDS011;10511;51.232;9.420;2023-12-14T09:57:25;1.17;;;1.17;;
20699;SDS011;10511;51.232;9.420;2023-12-14T09:59:52;1.20;;;1.20;;
20699;SDS011;10511;51.232;9.420;2023-12-14T10:02:22;1.20;;;1.20;;
20699;SDS011;10511;51.232;9.420;2023-12-14T10:04:51;1.30;;;1.30;;
20699;SDS011;10511;51.232;9.420;2023-12-14T10:07:19;1.20;;;1.20;;
20699;SDS011;10511;51.232;9.420;2023-12-14T10:09:47;1.37;;;1.37;;
20699;SDS011;10511;51.232;9.420;2023-12-14T10:12:15;1.40;;;1.40;;
20699;SDS011;10511;51.232;9.420;2023-12-14T10:14:42;1.20;;;1.20;;
20699;SDS011;10511;51.232;9.420;2023-12-14T10:17:16;1.10;;;1.10;;
20699;SDS011;10511;51.232;9.420;2023-12-14T10:19:45;1.10;;;1.10;;
20699;SDS011;10511;51.232;9.420;2023-12-14T10:22:13;1.20;;;1.20;;
20699;SDS011;10511;51.232;9.420;2023-12-14T10:24:44;1.10;;;1.10;;
20699;SDS011;10511;51.232;9.420;2023-12-14T10:27:11;1.20;;;1.20;;
20699;SDS011;10511;51.232;9.420;2023-12-14T10:29:37;1.10;;;1.10;;
20699;SDS011;10511;51.232;9.420;2023-12-14T10:32:06;1.20;;;1.20;;
20699;SDS011;10511;51.232;9.420;2023-12-14T10:34:35;1.30;;;1.30;;
20699;SDS011;10511;51.232;9.420;2023-12-14T10:37:03;1.20;;;1.20;;
20699;SDS011;10511;51.232;9.420;2023-12-14T10:39:32;1.20;;;1.20;;
20699;SDS011;10511;51.232;9.420;2023-12-14T10:42:01;1.20;;;1.20;;
20699;SDS011;10511;51.232;9.420;2023-12-14T10:44:29;1.10;;;1.10;;
20699;SDS011;10511;51.232;9.420;2023-12-14T10:46:58;1.20;;;1.20;;
20699;SDS011;10511;51.232;9.420;2023-12-14T10:49:26;1.20;;;1.20;;
20699;SDS011;10511;51.232;9.420;2023-12-14T10:51:55;1.20;;;1.20;;
20699;SDS011;10511;51.232;9.420;2023-12-14T10:54:25;1.20;;;1.20;;
20699;SDS011;10511;51.232;9.420;2023-12-14T10:56:54;1.20;;;1.20;;
20699;SDS011;10511;51.232;9.420;2023-12-14T10:59:24;1.30;;;1.30;;
20699;SDS011;10511;51.232;9.420;2023-12-14T11:01:51;1.10;;;1.10;;
20699;SDS011;10511;51.232;9.420;2023-12-14T11:04:20;1.30;;;1.30;;
20699;SDS011;10511;51.232;9.420;2023-12-14T11:06:48;1.20;;;1.20;;
20699;SDS011;10511;51.232;9.420;2023-12-14T11:09:16;1.20;;;1.20;;
20699;SDS011;10511;51.232;9.420;2023-12-14T11:11:47;1.10;;;1.10;;
20699;SDS011;10511;51.232;9.420;2023-12-14T11:14:24;1.20;;;1.20;;
20699;SDS011;10511;51.232;9.420;2023-12-14T11:16:53;1.20;;;1.20;;
20699;SDS011;10511;51.232;9.420;2023-12-14T11:19:27;1.10;;;1.10;;
20699;SDS011;10511;51.232;9.420;2023-12-14T11:22:11;1.20;;;1.20;;
20699;SDS011;10511;51.232;9.420;2023-12-14T11:24:42;1.10;;;1.10;;
20699;SDS011;10511;51.232;9.420;2023-12-14T11:27:16;1.17;;;1.17;;
20699;SDS011;10511;51.232;9.420;2023-12-14T11:29:49;1.13;;;1.13;;
20699;SDS011;10511;51.232;9.420;2023-12-14T11:32:16;1.10;;;1.10;;
20699;SDS011;10511;51.232;9.420;2023-12-14T11:34:45;1.20;;;1.20;;
20699;SDS011;10511;51.232;9.420;2023-12-14T11:37:13;1.37;;;1.37;;
20699;SDS011;10511;51.232;9.420;2023-12-14T11:39:40;1.20;;;1.20;;
20699;SDS011;10511;51.232;9.420;2023-12-14T11:42:08;1.20;;;1.20;;
20699;SDS011;10511;51.232;9.420;2023-12-14T11:44:35;1.17;;;1.17;;
20699;SDS011;10511;51.232;9.420;2023-12-14T11:47:04;1.20;;;1.20;;
20699;SDS011;10511;51.232;9.420;2023-12-14T11:49:31;1.20;;;1.20;;
20699;SDS011;10511;51.232;9.420;2023-12-14T11:52:01;1.10;;;1.10;;
20699;SDS011;10511;51.232;9.420;2023-12-14T11:54:28;1.13;;;1.13;;
20699;SDS011;10511;51.232;9.420;2023-12-14T11:56:55;1.20;;;1.20;;
20699;SDS011;10511;51.232;9.420;2023-12-14T11:59:22;1.30;;;1.30;;
20699;SDS011;10511;51.232;9.420;2023-12-14T12:01:53;1.20;;;1.20;;
20699;SDS011;10511;51.232;9.420;2023-12-14T12:04:22;1.27;;;1.27;;
20699;SDS011;10511;51.232;9.420;2023-12-14T12:06:58;1.33;;;1.33;;
20699;SDS011;10511;51.232;9.420;2023-12-14T12:09:36;1.30;;;1.30;;
20699;SDS011;10511;51.232;9.420;2023-12-14T12:12:06;1.30;;;1.30;;
20699;SDS011;10511;51.232;9.420;2023-12-14T12:14:34;1.30;;;1.30;;
20699;SDS011;10511;51.232;9.420;2023-12-14T12:17:01;1.37;;;1.37;;
20699;SDS011;10511;51.232;9.420;2023-12-14T12:19:32;1.43;;;1.43;;
20699;SDS011;10511;51.232;9.420;2023-12-14T12:21:59;1.30;;;1.30;;
20699;SDS011;10511;51.232;9.420;2023-12-14T12:24:26;1.20;;;1.20;;
20699;SDS011;10511;51.232;9.420;2023-12-14T12:26:53;1.40;;;1.40;;
20699;SDS011;10511;51.232;9.420;2023-12-14T12:29:20;1.20;;;1.20;;
20699;SDS011;10511;51.232;9.420;2023-12-14T12:31:47;1.20;;;1.20;;
20699;SDS011;10511;51.232;9.420;2023-12-14T12:34:14;1.20;;;1.20;;
20699;SDS011;10511;51.232;9.420;2023-12-14T12:36:42;1.13;;;1.13;;
20699;SDS011;10511;51.232;9.420;2023-12-14T12:39:09;1.20;;;1.20;;
20699;SDS011;10511;51.232;9.420;2023-12-14T12:41:36;1.30;;;1.30;;
20699;SDS011;10511;51.232;9.420;2023-12-14T12:44:03;1.20;;;1.20;;
20699;SDS011;10511;51.232;9.420;2023-12-14T12:46:33;1.30;;;1.30;;
20699;SDS011;10511;51.232;9.420;2023-12-14T12:49:00;1.30;;;1.30;;
20699;SDS011;10511;51.232;9.420;2023-12-14T12:51:27;1.20;;;1.20;;
20699;SDS011;10511;51.232;9.420;2023-12-14T12:53:56;1.30;;;1.30;;
20699;SDS011;10511;51.232;9.420;2023-12-14T12:56:24;1.23;;;1.23;;
20699;SDS011;10511;51.232;9.420;2023-12-14T12:58:51;1.20;;;1.20;;
20699;SDS011;10511;51.232;9.420;2023-12-14T13:01:19;1.40;;;1.40;;
20699;SDS011;10511;51.232;9.420;2023-12-14T13:03:55;1.30;;;1.30;;
20699;SDS011;10511;51.232;9.420;2023-12-14T13:06:35;1.30;;;1.30;;
20699;SDS011;10511;51.232;9.420;2023-12-14T13:09:04;1.40;;;1.40;;
20699;SDS011;10511;51.232;9.420;2023-12-14T13:11:31;1.20;;;1.20;;
20699;SDS011;10511;51.232;9.420;2023-12-14T13:13:58;1.20;;;1.20;;
20699;SDS011;10511;51.232;9.420;2023-12-14T13:16:26;1.20;;;1.20;;
20699;SDS011;10511;51.232;9.420;2023-12-14T13:18:53;1.20;;;1.20;;
20699;SDS011;10511;51.232;9.420;2023-12-14T13:21:19;1.20;;;1.20;;
20699;SDS011;10511;51.232;9.420;2023-12-14T13:23:47;1.40;;;1.40;;
20699;SDS011;10511;51.232;9.420;2023-12-14T13:26:17;1.30;;;1.30;;
20699;SDS011;10511;51.232;9.420;2023-12-14T13:28:44;1.20;;;1.20;;
20699;SDS011;10511;51.232;9.420;2023-12-14T13:31:11;1.20;;;1.20;;
20699;SDS011;10511;51.232;9.420;2023-12-14T13:33:38;1.30;;;1.30;;
20699;SDS011;10511;51.232;9.420;2023-12-14T13:36:06;1.20;;;1.20;;
20699;SDS011;10511;51.232;9.420;2023-12-14T13:38:34;1.30;;;1.30;;
20699;SDS011;10511;51.232;9.420;2023-12-14T13:41:02;1.30;;;1.30;;
20699;SDS011;10511;51.232;9.420;2023-12-14T13:43:31;1.20;;;1.20;;
20699;SDS011;10511;51.232;9.420;2023-12-14T13:45:58;1.20;;;1.20;;
20699;SDS011;10511;51.232;9.420;2023-12-14T13:48:26;1.20;;;1.20;;
20699;SDS011;10511;51.232;9.420;2023-12-14T13:50:54;1.23;;;1.23;;
20699;SDS011;10511;51.232;9.420;2023-12-14T13:53:22;1.30;;;1.30;;
20699;SDS011;10511;51.232;9.420;2023-12-14T13:55:50;1.20;;;1.20;;
20699;SDS011;10511;51.232;9.420;2023-12-14T13:58:17;1.30;;;1.30;;
20699;SDS011;10511;51.232;9.420;2023-12-14T14:00:46;1.20;;;1.20;;
20699;SDS011;10511;51.232;9.420;2023-12-14T14:03:13;1.20;;;1.20;;
20699;SDS011;10511;51.232;9.420;2023-12-14T14:05:41;1.23;;;1.23;;
20699;SDS011;10511;51.232;9.420;2023-12-14T14:08:09;1.30;;;1.30;;
20699;SDS011;10511;51.232;9.420;2023-12-14T14:10:36;1.33;;;1.33;;
20699;SDS011;10511;51.232;9.420;2023-12-14T14:13:04;1.30;;;1.30;;
20699;SDS011;10511;51.232;9.420;2023-12-14T14:15:31;1.30;;;1.30;;
20699;SDS011;10511;51.232;9.420;2023-12-14T14:17:59;1.33;;;1.33;;
20699;SDS011;10511;51.232;9.420;2023-12-14T14:20:26;1.20;;;1.20;;
20699;SDS011;10511;51.232;9.420;2023-12-14T14:22:53;1.30;;;1.30;;
20699;SDS011;10511;51.232;9.420;2023-12-14T14:25:21;1.40;;;1.40;;
20699;SDS011;10511;51.232;9.420;2023-12-14T14:27:48;1.40;;;1.40;;
20699;SDS011;10511;51.232;9.420;2023-12-14T14:30:15;1.20;;;1.20;;
20699;SDS011;10511;51.232;9.420;2023-12-14T14:32:42;1.30;;;1.30;;
20699;SDS011;10511;51.232;9.420;2023-12-14T14:35:11;1.20;;;1.20;;
20699;SDS011;10511;51.232;9.420;2023-12-14T14:37:38;1.20;;;1.20;;
20699;SDS011;10511;51.232;9.420;2023-12-14T14:40:10;1.30;;;1.30;;
20699;SDS011;10511;51.232;9.420;2023-12-14T14:42:38;1.23;;;1.23;;
20699;SDS011;10511;51.232;9.420;2023-12-14T14:45:05;1.30;;;1.30;;
20699;SDS011;10511;51.232;9.420;2023-12-14T14:47:33;1.23;;;1.23;;
20699;SDS011;10511;51.232;9.420;2023-12-14T14:50:00;1.20;;;1.20;;